Time;durP1;ratioP1;P1;durP2;ratioP2;P2;SDS_P1;SDS_P2;PMS_P1;PMS_P2;Temp;Humidity;BMP_temperature;BMP_pressure;BME280_temperature;BME280_humidity;BME280_pressure;Samples;Min_cycle;Max_cycle;Signal;HPM_P1;HPM_P2
2023/09/28 00:00:49;;;;;;;0.20;0.20;;;;;;;17.17;100.00;100149.44;5075583;28;20032;-63
2023/09/28 00:03:14;;;;;;;0.20;0.20;;;;;;;17.14;100.00;100145.13;5086544;28;20455;-62
2023/09/28 00:05:40;;;;;;;0.25;0.25;;;;;;;17.12;100.00;100148.84;5072433;28;20104;-62
2023/09/28 00:08:05;;;;;;;0.30;0.30;;;;;;;17.11;100.00;100145.28;5087756;28;20038;-62
2023/09/28 00:10:31;;;;;;;0.20;0.20;;;;;;;17.10;100.00;100154.28;5078241;28;20084;-62
2023/09/28 00:12:56;;;;;;;0.20;0.20;;;;;;;17.09;100.00;100157.94;5090208;28;20031;-62
2023/09/28 00:15:26;;;;;;;0.10;0.10;;;;;;;17.09;100.00;100161.50;5076063;28;20036;-62
2023/09/28 00:17:52;;;;;;;0.20;0.20;;;;;;;17.07;100.00;100160.72;5090958;28;20032;-62
2023/09/28 00:20:19;;;;;;;0.20;0.20;;;;;;;17.06;100.00;100166.19;5090973;28;20108;-62
2023/09/28 00:22:45;;;;;;;0.20;0.20;;;;;;;17.10;100.00;100148.91;5090552;28;20051;-62
2023/09/28 00:25:11;;;;;;;0.20;0.20;;;;;;;17.10;100.00;100159.66;5073282;28;20040;-62
2023/09/28 00:27:43;;;;;;;0.20;0.20;;;;;;;17.13;100.00;100150.59;5070400;28;20472;-62
2023/09/28 00:30:10;;;;;;;0.20;0.20;;;;;;;17.15;100.00;100146.84;5072849;28;20377;-62
2023/09/28 00:32:36;;;;;;;0.30;0.30;;;;;;;17.15;100.00;100146.84;5070851;28;20020;-62
2023/09/28 00:35:04;;;;;;;0.20;0.20;;;;;;;17.13;100.00;100148.78;5072978;28;20028;-62
2023/09/28 00:37:30;;;;;;;0.30;0.30;;;;;;;17.14;100.00;100131.69;5069804;28;20487;-62
2023/09/28 00:39:55;;;;;;;0.20;0.20;;;;;;;17.11;100.00;100113.03;5070317;28;20020;-62
2023/09/28 00:42:22;;;;;;;0.20;0.20;;;;;;;17.14;100.00;100123.59;5089374;28;20107;-63
2023/09/28 00:44:47;;;;;;;0.20;0.20;;;;;;;17.15;100.00;100119.94;5078933;28;20537;-62
2023/09/28 00:47:13;;;;;;;0.20;0.20;;;;;;;17.16;100.00;100131.59;5069110;28;20111;-62
2023/09/28 00:49:39;;;;;;;0.20;0.20;;;;;;;17.13;100.00;100136.16;5075576;28;20472;-62
2023/09/28 00:52:07;;;;;;;0.20;0.20;;;;;;;17.09;100.00;100140.00;5089005;28;20047;-62
2023/09/28 00:54:33;;;;;;;0.10;0.10;;;;;;;17.08;100.00;100140.09;5075019;28;20032;-63
2023/09/28 00:57:00;;;;;;;0.22;0.22;;;;;;;17.08;100.00;100145.47;5090419;28;20038;-62
2023/09/28 00:59:26;;;;;;;0.20;0.20;;;;;;;17.08;100.00;100145.47;5083187;28;20020;-59
2023/09/28 01:01:53;;;;;;;0.22;0.22;;;;;;;17.08;100.00;100146.31;5087693;28;20503;-62
2023/09/28 01:04:22;;;;;;;0.22;0.22;;;;;;;17.09;100.00;100160.63;5072888;28;20377;-63
2023/09/28 01:06:48;;;;;;;0.13;0.13;;;;;;;17.02;100.00;100161.94;5089532;28;20487;-63
2023/09/28 01:09:15;;;;;;;0.20;0.20;;;;;;;16.95;100.00;100155.19;5090467;28;20032;-62
2023/09/28 01:11:41;;;;;;;0.20;0.20;;;;;;;16.95;100.00;100157.88;5064485;28;20452;-63
2023/09/28 01:14:07;;;;;;;0.15;0.15;;;;;;;16.97;100.00;100169.38;5055791;28;20032;-62
2023/09/28 01:16:33;;;;;;;0.20;0.20;;;;;;;17.01;100.00;100177.22;5067251;28;20113;-62
2023/09/28 01:18:58;;;;;;;0.20;0.20;;;;;;;17.03;100.00;100185.19;5068614;28;20652;-62
2023/09/28 01:21:24;;;;;;;0.30;0.30;;;;;;;17.02;100.00;100181.63;5050339;28;20369;-62
2023/09/28 01:23:50;;;;;;;0.20;0.20;;;;;;;17.09;100.00;100174.06;5049413;28;20028;-62
2023/09/28 01:26:16;;;;;;;0.20;0.20;;;;;;;17.11;100.00;100166.78;5061979;28;20112;-62
2023/09/28 01:28:41;;;;;;;0.20;0.20;;;;;;;17.13;100.00;100165.75;5069390;28;20772;-63
2023/09/28 01:31:07;;;;;;;0.28;0.28;;;;;;;17.15;100.00;100168.34;5062839;28;20035;-62
2023/09/28 01:33:32;;;;;;;0.20;0.20;;;;;;;17.21;100.00;100170.69;5048354;28;20116;-62
2023/09/28 01:35:58;;;;;;;0.20;0.20;;;;;;;17.26;100.00;100174.00;5048411;28;20031;-62
2023/09/28 01:38:34;;;;;;;0.20;0.20;;;;;;;17.26;100.00;100174.00;5049252;28;20120;-62
2023/09/28 01:41:00;;;;;;;0.30;0.30;;;;;;;17.29;100.00;100181.88;5057403;28;20051;-62
2023/09/28 01:43:26;;;;;;;0.20;0.20;;;;;;;17.33;100.00;100178.03;5067448;28;20021;-62
2023/09/28 01:45:51;;;;;;;0.20;0.20;;;;;;;17.35;100.00;100176.13;5050637;28;20065;-63
2023/09/28 01:48:17;;;;;;;0.20;0.20;;;;;;;17.37;100.00;100184.13;5029761;28;20136;-62
2023/09/28 01:50:42;;;;;;;0.20;0.20;;;;;;;17.39;100.00;100174.13;5047808;28;20046;-62
2023/09/28 01:53:08;;;;;;;0.20;0.20;;;;;;;17.41;100.00;100174.94;5049654;28;20031;-62
2023/09/28 01:55:33;;;;;;;0.20;0.20;;;;;;;17.41;100.00;100158.78;5060625;28;20024;-62
2023/09/28 01:57:59;;;;;;;0.20;0.20;;;;;;;17.47;100.00;100153.97;5069922;28;20026;-62
2023/09/28 02:00:25;;;;;;;0.20;0.20;;;;;;;17.47;100.00;100159.34;5072022;28;20032;-62
2023/09/28 02:02:55;;;;;;;0.20;0.20;;;;;;;17.47;100.00;100151.25;5069663;28;20248;-62
2023/09/28 02:05:22;;;;;;;0.20;0.20;;;;;;;17.50;100.00;100147.50;5053190;28;20354;-62
2023/09/28 02:07:49;;;;;;;0.20;0.20;;;;;;;17.45;100.00;100147.78;5050660;28;20044;-62
2023/09/28 02:10:15;;;;;;;0.20;0.20;;;;;;;17.44;100.00;100143.34;5062860;28;20177;-62
2023/09/28 02:12:43;;;;;;;0.20;0.20;;;;;;;17.42;100.00;100137.19;5089785;28;20028;-62
2023/09/28 02:15:10;;;;;;;0.20;0.20;;;;;;;17.46;100.00;100141.44;5089472;28;20503;-62
2023/09/28 02:17:38;;;;;;;0.20;0.20;;;;;;;17.42;100.00;100150.63;5069118;28;20031;-62
2023/09/28 02:20:10;;;;;;;0.20;0.20;;;;;;;17.38;100.00;100149.06;5069202;28;20036;-62
2023/09/28 02:22:43;;;;;;;0.20;0.20;;;;;;;17.35;100.00;100148.41;5071751;28;20089;-62
2023/09/28 02:25:09;;;;;;;0.20;0.20;;;;;;;17.34;100.00;100146.66;5069460;28;20021;-62
2023/09/28 02:27:35;;;;;;;0.20;0.20;;;;;;;17.33;100.00;100139.56;5071263;28;20111;-62
2023/09/28 02:30:01;;;;;;;0.20;0.20;;;;;;;17.29;100.00;100149.63;5050944;28;20028;-62
2023/09/28 02:32:27;;;;;;;0.20;0.20;;;;;;;17.29;100.00;100165.75;5068372;28;20667;-61
2023/09/28 02:34:52;;;;;;;0.13;0.13;;;;;;;17.24;100.00;100145.44;5073014;28;20073;-62
2023/09/28 02:37:17;;;;;;;0.20;0.20;;;;;;;17.27;100.00;100148.81;5082510;28;20028;-62
2023/09/28 02:39:43;;;;;;;0.20;0.20;;;;;;;17.26;100.00;100171.31;5076049;28;20138;-62
2023/09/28 02:42:08;;;;;;;0.20;0.20;;;;;;;17.26;100.00;100144.41;5087478;28;20028;-62
2023/09/28 02:44:34;;;;;;;0.20;0.20;;;;;;;17.28;100.00;100155.94;5070708;28;20047;-62
2023/09/28 02:47:03;;;;;;;0.30;0.30;;;;;;;17.29;100.00;100167.56;5068338;28;20075;-62
2023/09/28 02:49:29;;;;;;;0.30;0.30;;;;;;;17.26;100.00;100176.69;5071762;28;20028;-62
2023/09/28 02:51:54;;;;;;;0.20;0.20;;;;;;;17.22;100.00;100177.81;5069074;28;20025;-62
2023/09/28 02:54:20;;;;;;;0.20;0.20;;;;;;;17.23;100.00;100163.41;5081125;28;20026;-62
2023/09/28 02:56:45;;;;;;;0.20;0.20;;;;;;;17.26;100.00;100160.56;5089241;28;20027;-62
2023/09/28 02:59:11;;;;;;;0.20;0.20;;;;;;;17.24;100.00;100157.06;5076578;28;20032;-62
2023/09/28 03:01:36;;;;;;;0.20;0.20;;;;;;;17.28;100.00;100163.16;5067541;28;20032;-61
2023/09/28 03:04:02;;;;;;;0.20;0.20;;;;;;;17.30;100.00;100170.16;5071423;28;20032;-62
2023/09/28 03:06:37;;;;;;;0.30;0.30;;;;;;;17.32;100.00;100159.31;5068931;28;20024;-62
2023/09/28 03:09:02;;;;;;;0.20;0.20;;;;;;;17.34;100.00;100162.78;5075217;28;20031;-62
2023/09/28 03:11:28;;;;;;;0.20;0.20;;;;;;;17.36;100.00;100171.63;5072497;28;20050;-61
2023/09/28 03:13:53;;;;;;;0.20;0.20;;;;;;;17.36;100.00;100180.59;5065591;28;20024;-62
2023/09/28 03:16:19;;;;;;;0.20;0.20;;;;;;;17.35;100.00;100175.28;5068772;28;20032;-62
2023/09/28 03:18:44;;;;;;;0.30;0.30;;;;;;;17.34;100.00;100179.78;5057384;28;20786;-62
2023/09/28 03:21:10;;;;;;;0.20;0.20;;;;;;;17.32;100.00;100192.44;5048867;28;20025;-62
2023/09/28 03:23:35;;;;;;;0.20;0.20;;;;;;;17.31;100.00;100206.00;5053591;28;20051;-61
2023/09/28 03:26:00;;;;;;;0.20;0.20;;;;;;;17.29;100.00;100208.75;5089029;28;20570;-62
2023/09/28 03:28:26;;;;;;;0.25;0.25;;;;;;;17.29;100.00;100216.84;5066766;28;20119;-62
2023/09/28 03:30:51;;;;;;;0.30;0.30;;;;;;;17.26;100.00;100213.44;5067407;28;20414;-62
2023/09/28 03:33:16;;;;;;;0.28;0.28;;;;;;;17.26;100.00;100191.94;5060603;28;20024;-61
2023/09/28 03:35:42;;;;;;;0.20;0.20;;;;;;;17.29;100.00;100189.94;5069136;28;20029;-62
2023/09/28 03:38:07;;;;;;;0.30;0.30;;;;;;;17.33;100.00;100199.56;5087086;28;20028;-62
2023/09/28 03:40:35;;;;;;;0.30;0.30;;;;;;;17.37;100.00;100203.81;5055855;28;20029;-62
2023/09/28 03:43:01;;;;;;;0.20;0.20;;;;;;;17.40;100.00;100200.94;5068131;28;20029;-62
2023/09/28 03:45:27;;;;;;;0.20;0.20;;;;;;;17.45;98.98;100209.66;5064806;28;20085;-61
2023/09/28 03:47:53;;;;;;;0.20;0.20;;;;;;;17.43;98.40;100206.13;5051725;28;20025;-62
2023/09/28 03:50:23;;;;;;;0.30;0.30;;;;;;;17.42;99.08;100208.91;5070982;28;20377;-62
2023/09/28 03:52:49;;;;;;;0.30;0.30;;;;;;;17.37;99.02;100213.69;5069860;28;20027;-62
2023/09/28 03:55:17;;;;;;;0.30;0.30;;;;;;;17.28;99.74;100211.53;5072113;28;20107;-62
2023/09/28 03:57:43;;;;;;;0.30;0.30;;;;;;;17.22;100.00;100223.50;5072204;28;20051;-62
2023/09/28 04:00:12;;;;;;;0.20;0.20;;;;;;;17.13;100.00;100226.72;5067555;28;20032;-62
2023/09/28 04:02:38;;;;;;;0.20;0.20;;;;;;;17.04;100.00;100225.41;5062919;28;20024;-62
2023/09/28 04:05:05;;;;;;;0.20;0.20;;;;;;;16.94;100.00;100223.31;5077749;28;20026;-62
2023/09/28 04:07:30;;;;;;;0.20;0.20;;;;;;;16.83;100.00;100212.28;5059654;28;20102;-62
2023/09/28 04:09:56;;;;;;;0.30;0.30;;;;;;;16.78;100.00;100211.66;5056470;28;20499;-62
2023/09/28 04:12:21;;;;;;;0.22;0.22;;;;;;;16.75;100.00;100211.84;5087015;28;20081;-62
2023/09/28 04:14:47;;;;;;;0.20;0.20;;;;;;;16.64;100.00;100198.09;5091944;28;20024;-62
2023/09/28 04:17:13;;;;;;;0.20;0.20;;;;;;;16.63;100.00;100212.50;5091897;28;20506;-62
2023/09/28 04:19:39;;;;;;;0.20;0.20;;;;;;;16.59;100.00;100214.47;5091788;28;20028;-62
2023/09/28 04:22:04;;;;;;;0.20;0.20;;;;;;;16.54;100.00;100213.00;5079623;28;20028;-62
2023/09/28 04:24:30;;;;;;;0.20;0.20;;;;;;;16.48;100.00;100205.25;5070570;28;20036;-62
2023/09/28 04:26:58;;;;;;;0.20;0.20;;;;;;;16.40;100.00;100199.41;5072937;28;20145;-62
2023/09/28 04:29:24;;;;;;;0.20;0.20;;;;;;;16.32;100.00;100197.13;5070294;28;20016;-62
2023/09/28 04:31:50;;;;;;;0.20;0.20;;;;;;;16.25;100.00;100201.09;5070750;28;20033;-62
2023/09/28 04:34:16;;;;;;;0.20;0.20;;;;;;;16.17;100.00;100189.88;5072985;28;20108;-62
2023/09/28 04:36:43;;;;;;;0.30;0.30;;;;;;;16.12;100.00;100199.13;5070326;28;20831;-62
2023/09/28 04:39:10;;;;;;;0.30;0.30;;;;;;;16.05;100.00;100203.06;5073415;28;20048;-58
2023/09/28 04:41:37;;;;;;;0.20;0.20;;;;;;;15.99;100.00;100203.38;5085538;28;20035;-59
2023/09/28 04:44:02;;;;;;;0.30;0.30;;;;;;;15.93;100.00;100212.59;5091185;28;20036;-59
2023/09/28 04:46:28;;;;;;;0.28;0.28;;;;;;;15.93;100.00;100211.75;5086134;28;20082;-58
2023/09/28 04:48:54;;;;;;;0.20;0.20;;;;;;;15.90;100.00;100215.44;5089941;28;20425;-59
2023/09/28 04:51:19;;;;;;;0.30;0.30;;;;;;;15.98;100.00;100232.03;5090340;28;20101;-58
2023/09/28 04:53:45;;;;;;;0.25;0.25;;;;;;;16.06;100.00;100242.38;5079304;28;20024;-59
2023/09/28 04:56:12;;;;;;;0.20;0.20;;;;;;;16.17;100.00;100250.75;5086032;28;20501;-58
2023/09/28 04:58:38;;;;;;;0.30;0.30;;;;;;;16.25;100.00;100265.50;5071591;28;20028;-58
2023/09/28 05:01:04;;;;;;;0.20;0.20;;;;;;;16.30;100.00;100263.47;5073062;28;20051;-58
2023/09/28 05:03:30;;;;;;;0.30;0.30;;;;;;;16.39;100.00;100270.16;5070506;28;20127;-59
2023/09/28 05:05:56;;;;;;;0.25;0.25;;;;;;;16.47;100.00;100270.66;5070832;28;20024;-58
2023/09/28 05:08:22;;;;;;;0.30;0.30;;;;;;;16.53;100.00;100275.69;5086919;28;20043;-58
2023/09/28 05:10:47;;;;;;;0.30;0.30;;;;;;;16.60;100.00;100279.81;5082722;28;20044;-59
2023/09/28 05:13:13;;;;;;;0.20;0.20;;;;;;;16.66;100.00;100277.66;5062588;28;20038;-58
2023/09/28 05:15:38;;;;;;;0.20;0.20;;;;;;;16.70;100.00;100276.56;5050133;28;20499;-59
2023/09/28 05:18:04;;;;;;;0.20;0.20;;;;;;;16.73;100.00;100276.41;5050366;28;20033;-58
2023/09/28 05:20:30;;;;;;;0.30;0.30;;;;;;;16.75;100.00;100274.47;5066321;28;20032;-58
2023/09/28 05:22:55;;;;;;;0.20;0.20;;;;;;;16.79;100.00;100280.56;5069189;28;20470;-59
2023/09/28 05:25:21;;;;;;;0.30;0.30;;;;;;;16.81;100.00;100271.47;5061866;28;20124;-58
2023/09/28 05:27:46;;;;;;;0.30;0.30;;;;;;;16.82;100.00;100266.94;5068567;28;20480;-59
2023/09/28 05:30:12;;;;;;;0.20;0.20;;;;;;;16.83;99.77;100266.03;5068208;28;20070;-58
2023/09/28 05:32:37;;;;;;;0.20;0.20;;;;;;;16.82;100.00;100256.19;5050785;28;20033;-58
2023/09/28 05:35:05;;;;;;;0.30;0.30;;;;;;;16.82;99.39;100256.19;5050026;28;20033;-59
2023/09/28 05:37:30;;;;;;;0.20;0.20;;;;;;;16.81;97.54;100259.84;5058463;28;20099;-58
2023/09/28 05:39:56;;;;;;;0.20;0.20;;;;;;;16.69;97.16;100234.53;5049116;28;20033;-58
2023/09/28 05:42:21;;;;;;;0.20;0.20;;;;;;;16.83;97.10;100263.34;5068195;28;20365;-58
2023/09/28 05:44:47;;;;;;;0.20;0.20;;;;;;;16.78;96.97;100257.34;5053472;28;20036;-58
2023/09/28 05:47:12;;;;;;;0.30;0.30;;;;;;;16.76;96.62;100262.78;5050016;28;20035;-58
2023/09/28 05:49:38;;;;;;;0.30;0.30;;;;;;;16.70;97.12;100273.00;5049987;28;20024;-61
2023/09/28 05:52:03;;;;;;;0.20;0.20;;;;;;;16.67;97.65;100265.97;5052555;28;20067;-62
2023/09/28 05:54:29;;;;;;;0.30;0.30;;;;;;;16.71;97.31;100261.28;5051353;28;20020;-61
2023/09/28 05:56:54;;;;;;;0.20;0.20;;;;;;;16.73;97.90;100264.78;5065659;28;20028;-61
2023/09/28 05:59:20;;;;;;;0.20;0.20;;;;;;;16.74;98.51;100261.13;5053474;28;20166;-62
2023/09/28 06:01:45;;;;;;;0.20;0.20;;;;;;;16.75;98.77;100258.34;5050023;28;20033;-61
2023/09/28 06:04:12;;;;;;;0.20;0.20;;;;;;;16.75;98.87;100265.56;5068025;28;20070;-61
2023/09/28 06:06:37;;;;;;;0.28;0.28;;;;;;;16.94;100.00;100250.16;5068261;28;20039;-61
2023/09/28 06:09:03;;;;;;;0.20;0.20;;;;;;;17.09;98.06;100265.47;5067354;28;20040;-61
2023/09/28 06:11:28;;;;;;;0.20;0.20;;;;;;;17.16;96.55;100272.25;5085424;28;20054;-61
2023/09/28 06:13:54;;;;;;;0.20;0.20;;;;;;;17.19;96.27;100277.44;5058602;28;20031;-62
2023/09/28 06:16:19;;;;;;;0.20;0.20;;;;;;;17.31;96.97;100271.41;5068414;28;20047;-62
2023/09/28 06:18:45;;;;;;;0.25;0.25;;;;;;;17.46;96.97;100275.06;5079984;28;20458;-61
2023/09/28 06:21:10;;;;;;;0.30;0.30;;;;;;;17.91;97.50;100267.91;5068600;28;20095;-61
2023/09/28 06:23:36;;;;;;;0.20;0.20;;;;;;;18.47;93.73;100271.78;5067767;28;20032;-62
2023/09/28 06:26:01;;;;;;;0.20;0.20;;;;;;;18.47;90.81;100271.78;5067740;28;20039;-61
2023/09/28 06:28:28;;;;;;;0.20;0.20;;;;;;;18.44;89.31;100283.59;5069894;28;20028;-61
2023/09/28 06:30:54;;;;;;;0.20;0.20;;;;;;;18.22;88.65;100281.28;5068351;28;20480;-61
2023/09/28 06:33:22;;;;;;;0.30;0.30;;;;;;;18.58;90.84;100280.06;5069570;28;20020;-61
2023/09/28 06:35:47;;;;;;;0.30;0.30;;;;;;;19.01;89.89;100284.56;5086638;28;20052;-61
2023/09/28 06:38:13;;;;;;;0.20;0.20;;;;;;;20.59;88.81;100282.94;5073440;28;20154;-61
2023/09/28 06:40:39;;;;;;;0.20;0.20;;;;;;;22.53;76.99;100292.06;5075443;28;20028;-61
2023/09/28 06:43:04;;;;;;;0.10;0.10;;;;;;;24.26;65.74;100306.91;5085105;28;20079;-61
2023/09/28 06:45:30;;;;;;;0.20;0.20;;;;;;;25.48;59.13;100315.25;5085184;28;20048;-62
2023/09/28 06:47:56;;;;;;;0.20;0.20;;;;;;;26.23;55.97;100304.72;5073072;28;20454;-62
2023/09/28 06:50:21;;;;;;;0.10;0.10;;;;;;;27.19;52.73;100315.44;5088955;28;20027;-61
2023/09/28 06:52:47;;;;;;;0.20;0.20;;;;;;;28.01;48.59;100315.56;5080343;28;20036;-61
2023/09/28 06:55:13;;;;;;;0.13;0.13;;;;;;;28.64;46.92;100308.19;5078005;28;20451;-62
2023/09/28 06:57:39;;;;;;;0.10;0.10;;;;;;;28.99;45.13;100305.41;5089349;28;20039;-61
2023/09/28 07:00:09;;;;;;;0.10;0.10;;;;;;;29.54;44.22;100312.31;5071562;28;20020;-58
2023/09/28 07:02:35;;;;;;;0.10;0.10;;;;;;;30.04;43.06;100305.00;5068999;28;20460;-59
2023/09/28 07:05:03;;;;;;;0.20;0.20;;;;;;;30.40;42.08;100295.53;5079785;28;20029;-58
2023/09/28 07:07:30;;;;;;;0.10;0.10;;;;;;;30.64;41.56;100303.78;5069860;28;20031;-58
2023/09/28 07:09:56;;;;;;;0.10;0.10;;;;;;;30.68;41.50;100310.66;5074643;28;20048;-58
2023/09/28 07:12:24;;;;;;;0.10;0.10;;;;;;;30.69;41.92;100317.84;5076442;28;20025;-59
2023/09/28 07:14:50;;;;;;;0.10;0.10;;;;;;;30.78;41.37;100311.38;5070041;28;20031;-58
2023/09/28 07:17:15;;;;;;;0.10;0.10;;;;;;;30.77;41.52;100301.41;5078613;28;20016;-58
2023/09/28 07:19:42;;;;;;;0.10;0.10;;;;;;;30.82;41.46;100307.25;5073235;28;20028;-58
2023/09/28 07:22:07;;;;;;;0.10;0.10;;;;;;;30.82;41.34;100306.41;5069104;28;20039;-59
2023/09/28 07:24:33;;;;;;;0.10;0.10;;;;;;;30.48;41.83;100317.50;5071615;28;20036;-58
2023/09/28 07:26:59;;;;;;;0.10;0.10;;;;;;;30.44;42.10;100324.38;5072354;28;20057;-58
2023/09/28 07:29:25;;;;;;;0.10;0.10;;;;;;;30.22;42.52;100319.50;5076847;28;20071;-58
2023/09/28 07:31:50;;;;;;;0.10;0.10;;;;;;;30.14;42.95;100322.19;5072689;28;20073;-58
2023/09/28 07:34:15;;;;;;;0.10;0.10;;;;;;;30.26;42.64;100315.41;5074607;28;20028;-58
2023/09/28 07:36:41;;;;;;;0.10;0.10;;;;;;;30.33;42.52;100321.09;5072286;28;20028;-59
2023/09/28 07:39:06;;;;;;;0.10;0.10;;;;;;;30.36;42.51;100324.31;5083053;28;20449;-59
2023/09/28 07:41:32;;;;;;;0.10;0.10;;;;;;;30.18;42.20;100312.59;5088885;28;20711;-58
2023/09/28 07:43:57;;;;;;;0.00;0.00;;;;;;;30.36;42.48;100328.97;5092460;28;20035;-58
2023/09/28 07:46:22;;;;;;;0.10;0.10;;;;;;;30.11;43.03;100328.03;5083733;28;20519;-58
2023/09/28 07:48:48;;;;;;;0.10;0.10;;;;;;;30.16;43.23;100325.66;5075201;28;20092;-58
2023/09/28 07:51:13;;;;;;;0.10;0.10;;;;;;;30.08;43.76;100316.53;5072595;28;20024;-58
2023/09/28 07:53:39;;;;;;;0.00;0.00;;;;;;;30.04;43.20;100315.13;5071992;28;20017;-58
2023/09/28 07:56:04;;;;;;;0.10;0.10;;;;;;;29.89;44.68;100322.25;5081995;28;20027;-58
2023/09/28 07:58:30;;;;;;;0.00;0.00;;;;;;;29.75;43.91;100321.03;5071893;28;20373;-58
2023/09/28 08:00:58;;;;;;;0.00;0.00;;;;;;;29.41;43.77;100326.47;5075565;28;20086;-58
2023/09/28 08:03:24;;;;;;;0.00;0.00;;;;;;;29.44;43.45;100344.47;5077585;28;20508;-58
2023/09/28 08:05:49;;;;;;;0.10;0.10;;;;;;;29.22;44.02;100340.41;5076704;28;20049;-58
2023/09/28 08:08:15;;;;;;;0.00;0.00;;;;;;;28.89;45.18;100343.88;5090700;28;20024;-58
2023/09/28 08:10:42;;;;;;;0.10;0.10;;;;;;;28.80;46.01;100344.81;5081114;28;20131;-58
2023/09/28 08:13:07;;;;;;;0.00;0.00;;;;;;;28.72;45.43;100342.00;5070697;28;20473;-59
2023/09/28 08:15:33;;;;;;;0.00;0.00;;;;;;;28.62;46.53;100340.34;5076340;28;20111;-58
2023/09/28 08:17:58;;;;;;;0.00;0.00;;;;;;;28.98;45.88;100337.41;5086356;28;20512;-59
2023/09/28 08:20:26;;;;;;;0.10;0.10;;;;;;;29.15;45.39;100346.66;5069642;28;20029;-58
2023/09/28 08:22:51;;;;;;;0.10;0.10;;;;;;;29.42;45.04;100358.31;5070050;28;20040;-58
2023/09/28 08:25:18;;;;;;;0.00;0.00;;;;;;;29.53;44.05;100354.47;5072795;28;20400;-57
2023/09/28 08:27:43;;;;;;;0.10;0.10;;;;;;;29.52;43.81;100350.00;5077167;28;20042;-58
2023/09/28 08:30:09;;;;;;;0.00;0.00;;;;;;;29.47;44.02;100355.13;5089431;28;20358;-58
2023/09/28 08:32:34;;;;;;;0.00;0.00;;;;;;;29.08;44.52;100349.19;5078104;28;20020;-57
2023/09/28 08:35:00;;;;;;;0.00;0.00;;;;;;;29.02;43.25;100355.28;5089451;28;20484;-57
2023/09/28 08:37:25;;;;;;;0.00;0.00;;;;;;;29.25;43.89;100350.16;5068311;28;20737;-57
2023/09/28 08:39:51;;;;;;;0.00;0.00;;;;;;;29.41;43.58;100355.75;5081882;28;20385;-58
2023/09/28 08:42:23;;;;;;;0.00;0.00;;;;;;;29.64;43.84;100363.28;5074803;28;20032;-58
2023/09/28 08:44:59;;;;;;;0.10;0.10;;;;;;;29.64;44.06;100363.28;5071232;28;20028;-59
2023/09/28 08:47:26;;;;;;;0.00;0.00;;;;;;;29.76;44.17;100366.63;5082712;28;20054;-59
2023/09/28 08:49:52;;;;;;;0.00;0.00;;;;;;;30.12;43.95;100362.66;5071466;28;20035;-57
2023/09/28 08:52:18;;;;;;;0.00;0.00;;;;;;;29.88;44.06;100370.81;5086407;28;20072;-58
2023/09/28 08:54:43;;;;;;;0.00;0.00;;;;;;;29.92;44.53;100358.47;5072501;28;20036;-58
2023/09/28 08:57:15;;;;;;;0.00;0.00;;;;;;;30.18;43.80;100369.38;5071606;28;20028;-57
2023/09/28 08:59:42;;;;;;;0.00;0.00;;;;;;;30.23;44.14;100362.38;5075337;28;20046;-58
2023/09/28 09:02:08;;;;;;;0.00;0.00;;;;;;;30.35;42.73;100360.19;5071759;28;20028;-58
2023/09/28 09:04:38;;;;;;;0.00;0.00;;;;;;;30.65;42.96;100365.94;5068700;28;20033;-58
2023/09/28 09:07:04;;;;;;;0.00;0.00;;;;;;;30.49;43.04;100368.66;5068556;28;20029;-58
2023/09/28 09:09:34;;;;;;;0.00;0.00;;;;;;;30.60;43.11;100370.19;5077919;28;20023;-57
2023/09/28 09:12:06;;;;;;;0.00;0.00;;;;;;;30.38;42.93;100371.69;5056249;28;20040;-58
2023/09/28 09:14:31;;;;;;;0.00;0.00;;;;;;;30.67;43.06;100374.88;5048396;28;20518;-57
2023/09/28 09:16:56;;;;;;;0.00;0.00;;;;;;;30.91;43.35;100370.47;5053621;28;20039;-58
2023/09/28 09:19:28;;;;;;;0.00;0.00;;;;;;;30.79;42.60;100373.53;5068997;28;20020;-60
2023/09/28 09:21:54;;;;;;;0.00;0.00;;;;;;;30.81;42.35;100376.97;5070773;28;20029;-60
2023/09/28 09:24:19;;;;;;;0.00;0.00;;;;;;;30.94;42.71;100375.63;5062517;28;20027;-60
2023/09/28 09:26:51;;;;;;;0.00;0.00;;;;;;;31.24;42.18;100372.16;5051911;28;20075;-60
2023/09/28 09:29:16;;;;;;;0.00;0.00;;;;;;;31.14;41.73;100371.50;5048966;28;20028;-59
2023/09/28 09:31:44;;;;;;;0.00;0.00;;;;;;;31.15;41.42;100374.06;5087123;28;20032;-59
2023/09/28 09:34:19;;;;;;;0.00;0.00;;;;;;;31.16;41.79;100374.91;5069936;28;20024;-60
2023/09/28 09:36:57;;;;;;;0.00;0.00;;;;;;;31.48;41.47;100367.53;5065019;28;20039;-59
2023/09/28 09:39:29;;;;;;;0.00;0.00;;;;;;;32.01;40.33;100361.38;5068056;28;20024;-59
2023/09/28 09:41:56;;;;;;;0.00;0.00;;;;;;;32.25;40.19;100358.50;5068172;28;20024;-59
2023/09/28 09:44:29;;;;;;;0.00;0.00;;;;;;;32.62;40.06;100350.38;5066809;28;20116;-59
2023/09/28 09:46:55;;;;;;;0.00;0.00;;;;;;;32.70;39.40;100342.03;5048832;28;20107;-59
2023/09/28 09:49:26;;;;;;;0.00;0.00;;;;;;;32.75;38.50;100336.84;5081465;28;20515;-59
2023/09/28 09:51:52;;;;;;;0.00;0.00;;;;;;;33.12;38.81;100333.28;5050649;28;20172;-59
2023/09/28 09:54:19;;;;;;;0.00;0.00;;;;;;;33.07;37.72;100331.09;5049176;28;20055;-59
2023/09/28 09:56:50;;;;;;;0.00;0.00;;;;;;;32.68;38.63;100333.13;5058052;28;20040;-59
2023/09/28 09:59:18;;;;;;;0.00;0.00;;;;;;;32.53;38.41;100332.19;5048592;28;20053;-59
2023/09/28 10:01:47;;;;;;;0.00;0.00;;;;;;;32.36;38.41;100325.03;5052726;28;20029;-59
2023/09/28 10:04:18;;;;;;;0.00;0.00;;;;;;;32.82;39.83;100328.69;5063973;28;20039;-59
2023/09/28 10:06:47;;;;;;;0.00;0.00;;;;;;;32.99;37.76;100331.19;5060743;28;20123;-59
2023/09/28 10:09:15;;;;;;;0.00;0.00;;;;;;;33.13;37.91;100326.75;5065246;28;20117;-59
2023/09/28 10:11:41;;;;;;;0.00;0.00;;;;;;;32.98;38.11;100334.97;5075812;28;20049;-60
2023/09/28 10:14:08;;;;;;;0.00;0.00;;;;;;;33.21;38.78;100332.19;5080071;28;20146;-59
2023/09/28 10:16:37;;;;;;;0.00;0.00;;;;;;;33.53;37.73;100331.88;5072863;28;20056;-59
2023/09/28 10:19:05;;;;;;;0.00;0.00;;;;;;;33.37;36.39;100326.50;5055748;28;20094;-59
2023/09/28 10:21:38;;;;;;;0.00;0.00;;;;;;;33.31;37.53;100325.34;5070706;28;20029;-59
2023/09/28 10:24:11;;;;;;;0.00;0.00;;;;;;;33.56;37.23;100331.47;5081088;28;20611;-59
2023/09/28 10:26:38;;;;;;;0.00;0.00;;;;;;;33.21;36.35;100330.25;5079249;28;20115;-59
2023/09/28 10:29:09;;;;;;;0.00;0.00;;;;;;;32.97;38.42;100322.22;5073431;28;20063;-60
2023/09/28 10:31:37;;;;;;;0.00;0.00;;;;;;;33.62;37.71;100327.13;5072200;28;20043;-59
2023/09/28 10:34:04;;;;;;;0.00;0.00;;;;;;;34.07;37.06;100315.91;5071409;28;20456;-59
2023/09/28 10:36:30;;;;;;;0.00;0.00;;;;;;;34.17;36.75;100316.41;5077235;28;20029;-59
2023/09/28 10:39:12;;;;;;;0.00;0.00;;;;;;;34.53;36.37;100317.34;5074142;28;20429;-59
2023/09/28 10:41:39;;;;;;;0.00;0.00;;;;;;;34.19;36.78;100325.38;5079783;28;20028;-59
2023/09/28 10:44:18;;;;;;;0.00;0.00;;;;;;;34.09;36.37;100324.81;5081793;28;20802;-59
2023/09/28 10:46:49;;;;;;;0.00;0.00;;;;;;;34.14;36.57;100316.81;5075314;28;20528;-59
2023/09/28 10:49:21;;;;;;;0.00;0.00;;;;;;;34.00;36.26;100326.00;5081609;28;20043;-59
2023/09/28 10:51:47;;;;;;;0.00;0.00;;;;;;;34.13;36.26;100320.63;5075412;28;20755;-59
2023/09/28 10:54:13;;;;;;;0.00;0.00;;;;;;;33.87;36.19;100323.03;5074179;28;20029;-59
2023/09/28 10:56:39;;;;;;;0.00;0.00;;;;;;;34.06;36.04;100319.69;5084490;28;20119;-59
2023/09/28 10:59:06;;;;;;;0.00;0.00;;;;;;;33.89;36.19;100330.06;5077781;28;20028;-60
2023/09/28 11:01:32;;;;;;;0.00;0.00;;;;;;;34.03;35.22;100323.72;5080209;28;20111;-58
2023/09/28 11:03:57;;;;;;;0.00;0.00;;;;;;;33.92;34.95;100321.41;5075102;28;20025;-59
2023/09/28 11:06:23;;;;;;;0.00;0.00;;;;;;;34.12;35.86;100321.69;5078868;28;20107;-59
2023/09/28 11:08:49;;;;;;;0.00;0.00;;;;;;;34.31;34.64;100330.22;5086527;28;20166;-59
2023/09/28 11:11:17;;;;;;;0.00;0.00;;;;;;;34.24;35.22;100318.22;5087712;28;20044;-59
2023/09/28 11:13:43;;;;;;;0.00;0.00;;;;;;;34.35;35.27;100314.94;5087647;28;20040;-59
2023/09/28 11:16:11;;;;;;;0.00;0.00;;;;;;;34.52;34.67;100304.53;5083674;28;20036;-58
2023/09/28 11:18:37;;;;;;;0.00;0.00;;;;;;;34.20;35.27;100311.38;5089346;28;20112;-59